sensor_id;sensor_type;location;lat;lon;timestamp;P1;durP1;ratioP1;P2;durP2;ratioP2
86110;SDS011;76766;52.874;11.218;2024-03-23T00:53:58;6.15;;;2.25;;
86110;SDS011;76766;52.874;11.218;2024-03-23T00:56:23;7.80;;;2.63;;
86110;SDS011;76766;52.874;11.218;2024-03-23T00:58:49;5.93;;;2.42;;
86110;SDS011;76766;52.874;11.218;2024-03-23T01:01:15;3.88;;;1.75;;
86110;SDS011;76766;52.874;11.218;2024-03-23T01:03:40;6.72;;;1.95;;
86110;SDS011;76766;52.874;11.218;2024-03-23T01:06:05;4.00;;;2.65;;
86110;SDS011;76766;52.874;11.218;2024-03-23T01:08:31;4.60;;;2.13;;
86110;SDS011;76766;52.874;11.218;2024-03-23T01:10:56;4.93;;;2.20;;
86110;SDS011;76766;52.874;11.218;2024-03-23T01:13:26;3.40;;;2.15;;
86110;SDS011;76766;52.874;11.218;2024-03-23T01:15:53;3.60;;;1.80;;
86110;SDS011;76766;52.874;11.218;2024-03-23T01:18:19;3.58;;;2.13;;
86110;SDS011;76766;52.874;11.218;2024-03-23T01:20:45;5.55;;;2.60;;
86110;SDS011;76766;52.874;11.218;2024-03-23T01:23:11;4.47;;;1.83;;
86110;SDS011;76766;52.874;11.218;2024-03-23T01:25:37;4.63;;;2.40;;
86110;SDS011;76766;52.874;11.218;2024-03-23T01:28:03;3.55;;;2.03;;
86110;SDS011;76766;52.874;11.218;2024-03-23T01:30:29;4.35;;;2.13;;
86110;SDS011;76766;52.874;11.218;2024-03-23T01:32:55;4.47;;;2.28;;
86110;SDS011;76766;52.874;11.218;2024-03-23T01:35:20;3.42;;;2.15;;
86110;SDS011;76766;52.874;11.218;2024-03-23T01:37:46;4.70;;;1.98;;
86110;SDS011;76766;52.874;11.218;2024-03-23T01:40:11;4.13;;;1.83;;
86110;SDS011;76766;52.874;11.218;2024-03-23T01:42:40;5.05;;;2.00;;
86110;SDS011;76766;52.874;11.218;2024-03-23T01:45:07;3.75;;;1.90;;
86110;SDS011;76766;52.874;11.218;2024-03-23T01:47:33;4.57;;;1.88;;
86110;SDS011;76766;52.874;11.218;2024-03-23T01:49:59;3.25;;;1.80;;
86110;SDS011;76766;52.874;11.218;2024-03-23T01:52:25;6.15;;;1.98;;
86110;SDS011;76766;52.874;11.218;2024-03-23T01:54:52;4.03;;;2.20;;
86110;SDS011;76766;52.874;11.218;2024-03-23T01:57:18;4.38;;;2.28;;
86110;SDS011;76766;52.874;11.218;2024-03-23T01:59:43;4.45;;;2.15;;
86110;SDS011;76766;52.874;11.218;2024-03-23T02:02:09;4.55;;;1.80;;
86110;SDS011;76766;52.874;11.218;2024-03-23T02:04:34;4.78;;;1.98;;
86110;SDS011;76766;52.874;11.218;2024-03-23T02:06:59;3.22;;;1.98;;
86110;SDS011;76766;52.874;11.218;2024-03-23T02:09:25;4.40;;;2.25;;
86110;SDS011;76766;52.874;11.218;2024-03-23T02:11:50;3.75;;;1.60;;
86110;SDS011;76766;52.874;11.218;2024-03-23T02:14:15;3.33;;;1.85;;
86110;SDS011;76766;52.874;11.218;2024-03-23T02:16:41;4.13;;;2.00;;
86110;SDS011;76766;52.874;11.218;2024-03-23T02:19:08;3.97;;;1.80;;
86110;SDS011;76766;52.874;11.218;2024-03-23T02:21:33;2.30;;;1.50;;
86110;SDS011;76766;52.874;11.218;2024-03-23T02:23:59;3.08;;;2.10;;
86110;SDS011;76766;52.874;11.218;2024-03-23T02:26:25;5.65;;;1.67;;
86110;SDS011;76766;52.874;11.218;2024-03-23T02:28:51;3.97;;;2.03;;
86110;SDS011;76766;52.874;11.218;2024-03-23T02:31:16;3.37;;;1.60;;
86110;SDS011;76766;52.874;11.218;2024-03-23T02:33:41;4.55;;;1.92;;
86110;SDS011;76766;52.874;11.218;2024-03-23T02:36:07;4.63;;;1.92;;
86110;SDS011;76766;52.874;11.218;2024-03-23T02:38:32;4.18;;;1.88;;
86110;SDS011;76766;52.874;11.218;2024-03-23T02:41:02;3.58;;;1.65;;
86110;SDS011;76766;52.874;11.218;2024-03-23T02:43:28;3.47;;;1.92;;
86110;SDS011;76766;52.874;11.218;2024-03-23T02:45:54;2.30;;;1.73;;
86110;SDS011;76766;52.874;11.218;2024-03-23T02:48:19;2.72;;;1.48;;
86110;SDS011;76766;52.874;11.218;2024-03-23T02:50:44;4.35;;;1.67;;
86110;SDS011;76766;52.874;11.218;2024-03-23T02:53:10;3.15;;;1.58;;
86110;SDS011;76766;52.874;11.218;2024-03-23T02:55:35;2.38;;;1.55;;
86110;SDS011;76766;52.874;11.218;2024-03-23T02:58:01;2.63;;;1.75;;
86110;SDS011;76766;52.874;11.218;2024-03-23T03:00:27;3.92;;;1.88;;
86110;SDS011;76766;52.874;11.218;2024-03-23T03:02:53;2.95;;;1.73;;
86110;SDS011;76766;52.874;11.218;2024-03-23T03:05:18;3.95;;;1.50;;
86110;SDS011;76766;52.874;11.218;2024-03-23T03:07:43;1.95;;;1.55;;
86110;SDS011;76766;52.874;11.218;2024-03-23T03:10:09;2.90;;;1.60;;
86110;SDS011;76766;52.874;11.218;2024-03-23T03:12:36;1.98;;;1.60;;
86110;SDS011;76766;52.874;11.218;2024-03-23T03:15:02;4.00;;;1.88;;
86110;SDS011;76766;52.874;11.218;2024-03-23T03:17:29;2.00;;;1.33;;
86110;SDS011;76766;52.874;11.218;2024-03-23T03:19:55;3.97;;;1.73;;
86110;SDS011;76766;52.874;11.218;2024-03-23T03:22:21;3.00;;;1.63;;
86110;SDS011;76766;52.874;11.218;2024-03-23T03:24:47;2.40;;;1.55;;
86110;SDS011;76766;52.874;11.218;2024-03-23T03:27:12;3.17;;;1.75;;
86110;SDS011;76766;52.874;11.218;2024-03-23T03:29:38;2.03;;;1.30;;
86110;SDS011;76766;52.874;11.218;2024-03-23T03:32:03;3.13;;;1.50;;
86110;SDS011;76766;52.874;11.218;2024-03-23T03:34:29;2.03;;;1.60;;
86110;SDS011;76766;52.874;11.218;2024-03-23T03:36:54;2.63;;;1.63;;
86110;SDS011;76766;52.874;11.218;2024-03-23T03:39:20;3.70;;;1.70;;
86110;SDS011;76766;52.874;11.218;2024-03-23T03:41:47;2.70;;;1.70;;
86110;SDS011;76766;52.874;11.218;2024-03-23T03:44:13;2.47;;;1.60;;
86110;SDS011;76766;52.874;11.218;2024-03-23T03:46:38;2.30;;;1.48;;
86110;SDS011;76766;52.874;11.218;2024-03-23T03:49:04;2.58;;;1.40;;
86110;SDS011;76766;52.874;11.218;2024-03-23T03:51:29;2.70;;;1.40;;
86110;SDS011;76766;52.874;11.218;2024-03-23T03:53:54;3.17;;;1.70;;
86110;SDS011;76766;52.874;11.218;2024-03-23T03:56:20;3.72;;;1.75;;
86110;SDS011;76766;52.874;11.218;2024-03-23T03:58:46;2.70;;;1.75;;
86110;SDS011;76766;52.874;11.218;2024-03-23T04:01:12;2.72;;;1.85;;
86110;SDS011;76766;52.874;11.218;2024-03-23T04:03:37;4.72;;;2.05;;
86110;SDS011;76766;52.874;11.218;2024-03-23T04:06:08;3.58;;;1.77;;
86110;SDS011;76766;52.874;11.218;2024-03-23T04:08:33;5.05;;;1.50;;
86110;SDS011;76766;52.874;11.218;2024-03-23T04:10:59;2.13;;;1.70;;
86110;SDS011;76766;52.874;11.218;2024-03-23T04:13:24;3.87;;;1.70;;
86110;SDS011;76766;52.874;11.218;2024-03-23T04:15:53;2.33;;;1.63;;
86110;SDS011;76766;52.874;11.218;2024-03-23T04:18:19;1.75;;;1.58;;
86110;SDS011;76766;52.874;11.218;2024-03-23T04:20:44;4.95;;;1.65;;
86110;SDS011;76766;52.874;11.218;2024-03-23T04:23:10;3.47;;;1.50;;
86110;SDS011;76766;52.874;11.218;2024-03-23T04:25:35;2.55;;;1.50;;
86110;SDS011;76766;52.874;11.218;2024-03-23T04:28:00;2.95;;;1.30;;
86110;SDS011;76766;52.874;11.218;2024-03-23T04:30:26;2.33;;;1.55;;
86110;SDS011;76766;52.874;11.218;2024-03-23T04:32:53;2.00;;;1.40;;
86110;SDS011;76766;52.874;11.218;2024-03-23T04:35:18;2.17;;;1.40;;
86110;SDS011;76766;52.874;11.218;2024-03-23T04:37:45;1.90;;;1.58;;
86110;SDS011;76766;52.874;11.218;2024-03-23T04:40:10;2.63;;;1.50;;
86110;SDS011;76766;52.874;11.218;2024-03-23T04:42:36;1.70;;;1.58;;
86110;SDS011;76766;52.874;11.218;2024-03-23T04:45:02;1.83;;;1.50;;
86110;SDS011;76766;52.874;11.218;2024-03-23T04:47:28;5.38;;;1.60;;
86110;SDS011;76766;52.874;11.218;2024-03-23T04:49:53;4.20;;;1.67;;
86110;SDS011;76766;52.874;11.218;2024-03-23T04:52:19;3.42;;;1.42;;
86110;SDS011;76766;52.874;11.218;2024-03-23T04:54:44;1.55;;;1.42;;
86110;SDS011;76766;52.874;11.218;2024-03-23T04:57:13;5.55;;;2.03;;
86110;SDS011;76766;52.874;11.218;2024-03-23T04:59:38;2.35;;;1.45;;
86110;SDS011;76766;52.874;11.218;2024-03-23T05:02:03;3.63;;;1.52;;
86110;SDS011;76766;52.874;11.218;2024-03-23T05:04:29;2.72;;;1.33;;
86110;SDS011;76766;52.874;11.218;2024-03-23T05:06:54;3.88;;;1.20;;
86110;SDS011;76766;52.874;11.218;2024-03-23T05:09:20;4.00;;;1.55;;
86110;SDS011;76766;52.874;11.218;2024-03-23T05:11:46;3.50;;;1.50;;
86110;SDS011;76766;52.874;11.218;2024-03-23T05:14:12;1.75;;;1.30;;
86110;SDS011;76766;52.874;11.218;2024-03-23T05:16:38;2.30;;;1.40;;
86110;SDS011;76766;52.874;11.218;2024-03-23T05:19:03;3.03;;;1.60;;
86110;SDS011;76766;52.874;11.218;2024-03-23T05:21:29;2.47;;;1.50;;
86110;SDS011;76766;52.874;11.218;2024-03-23T05:23:54;1.60;;;1.50;;
86110;SDS011;76766;52.874;11.218;2024-03-23T05:26:21;2.25;;;1.85;;
86110;SDS011;76766;52.874;11.218;2024-03-23T05:28:47;1.85;;;1.30;;
86110;SDS011;76766;52.874;11.218;2024-03-23T05:31:12;2.50;;;1.50;;
86110;SDS011;76766;52.874;11.218;2024-03-23T05:33:38;1.30;;;1.20;;
86110;SDS011;76766;52.874;11.218;2024-03-23T05:36:03;1.75;;;1.38;;
86110;SDS011;76766;52.874;11.218;2024-03-23T05:38:29;2.55;;;1.50;;
86110;SDS011;76766;52.874;11.218;2024-03-23T05:43:20;2.07;;;1.20;;
86110;SDS011;76766;52.874;11.218;2024-03-23T05:45:45;2.63;;;1.20;;
86110;SDS011;76766;52.874;11.218;2024-03-23T05:48:11;3.28;;;1.20;;
86110;SDS011;76766;52.874;11.218;2024-03-23T05:50:36;6.70;;;1.63;;
86110;SDS011;76766;52.874;11.218;2024-03-23T05:53:02;2.63;;;1.35;;
86110;SDS011;76766;52.874;11.218;2024-03-23T05:55:29;2.22;;;1.45;;
86110;SDS011;76766;52.874;11.218;2024-03-23T05:57:55;3.20;;;1.30;;
86110;SDS011;76766;52.874;11.218;2024-03-23T06:00:20;2.08;;;1.50;;
86110;SDS011;76766;52.874;11.218;2024-03-23T06:02:45;1.52;;;1.10;;
86110;SDS011;76766;52.874;11.218;2024-03-23T06:05:11;1.95;;;1.25;;
86110;SDS011;76766;52.874;11.218;2024-03-23T06:07:37;2.75;;;1.42;;
86110;SDS011;76766;52.874;11.218;2024-03-23T06:10:02;1.55;;;1.20;;
86110;SDS011;76766;52.874;11.218;2024-03-23T06:12:28;1.42;;;1.20;;
86110;SDS011;76766;52.874;11.218;2024-03-23T06:14:53;2.00;;;1.48;;
86110;SDS011;76766;52.874;11.218;2024-03-23T06:17:19;1.98;;;1.42;;
86110;SDS011;76766;52.874;11.218;2024-03-23T06:19:44;2.03;;;1.38;;
86110;SDS011;76766;52.874;11.218;2024-03-23T06:22:10;3.05;;;1.35;;
86110;SDS011;76766;52.874;11.218;2024-03-23T06:24:35;1.55;;;1.20;;
86110;SDS011;76766;52.874;11.218;2024-03-23T06:27:00;1.77;;;1.17;;
86110;SDS011;76766;52.874;11.218;2024-03-23T06:29:26;3.85;;;1.42;;
86110;SDS011;76766;52.874;11.218;2024-03-23T06:31:54;3.05;;;1.25;;
86110;SDS011;76766;52.874;11.218;2024-03-23T06:34:20;4.10;;;1.35;;
86110;SDS011;76766;52.874;11.218;2024-03-23T06:36:47;2.10;;;1.25;;
86110;SDS011;76766;52.874;11.218;2024-03-23T06:39:14;3.67;;;1.30;;
86110;SDS011;76766;52.874;11.218;2024-03-23T06:41:41;1.13;;;1.00;;
86110;SDS011;76766;52.874;11.218;2024-03-23T06:44:07;1.92;;;1.38;;
86110;SDS011;76766;52.874;11.218;2024-03-23T06:46:32;1.40;;;1.30;;
86110;SDS011;76766;52.874;11.218;2024-03-23T06:48:58;3.28;;;1.50;;
86110;SDS011;76766;52.874;11.218;2024-03-23T06:51:23;2.42;;;1.20;;
86110;SDS011;76766;52.874;11.218;2024-03-23T06:53:49;2.55;;;1.42;;
86110;SDS011;76766;52.874;11.218;2024-03-23T06:56:15;2.00;;;1.17;;
86110;SDS011;76766;52.874;11.218;2024-03-23T06:58:40;2.53;;;1.27;;
86110;SDS011;76766;52.874;11.218;2024-03-23T07:01:05;3.38;;;1.67;;
86110;SDS011;76766;52.874;11.218;2024-03-23T07:03:32;1.23;;;1.10;;
86110;SDS011;76766;52.874;11.218;2024-03-23T07:05:57;2.35;;;1.13;;
86110;SDS011;76766;52.874;11.218;2024-03-23T07:08:23;1.92;;;1.33;;
86110;SDS011;76766;52.874;11.218;2024-03-23T07:10:49;1.17;;;1.10;;
86110;SDS011;76766;52.874;11.218;2024-03-23T07:13:14;1.77;;;1.20;;
86110;SDS011;76766;52.874;11.218;2024-03-23T07:15:40;1.95;;;1.10;;
86110;SDS011;76766;52.874;11.218;2024-03-23T07:18:05;2.38;;;1.02;;
86110;SDS011;76766;52.874;11.218;2024-03-23T07:20:30;1.77;;;1.35;;
86110;SDS011;76766;52.874;11.218;2024-03-23T07:22:56;1.73;;;1.33;;
86110;SDS011;76766;52.874;11.218;2024-03-23T07:25:22;1.60;;;1.17;;
86110;SDS011;76766;52.874;11.218;2024-03-23T07:27:48;1.67;;;1.30;;
86110;SDS011;76766;52.874;11.218;2024-03-23T07:30:14;1.65;;;1.20;;
86110;SDS011;76766;52.874;11.218;2024-03-23T07:32:39;1.48;;;1.30;;
86110;SDS011;76766;52.874;11.218;2024-03-23T07:35:05;1.55;;;1.00;;
86110;SDS011;76766;52.874;11.218;2024-03-23T07:37:30;1.77;;;1.27;;
86110;SDS011;76766;52.874;11.218;2024-03-23T07:39:56;1.83;;;1.25;;
86110;SDS011;76766;52.874;11.218;2024-03-23T07:42:22;1.17;;;0.93;;
86110;SDS011;76766;52.874;11.218;2024-03-23T07:44:48;1.48;;;1.20;;
86110;SDS011;76766;52.874;11.218;2024-03-23T07:47:14;1.30;;;1.20;;
86110;SDS011;76766;52.874;11.218;2024-03-23T07:49:39;7.55;;;2.05;;
86110;SDS011;76766;52.874;11.218;2024-03-23T07:52:05;5.30;;;1.90;;
86110;SDS011;76766;52.874;11.218;2024-03-23T07:54:30;7.43;;;2.20;;
86110;SDS011;76766;52.874;11.218;2024-03-23T07:56:56;12.25;;;5.13;;
86110;SDS011;76766;52.874;11.218;2024-03-23T07:59:21;18.35;;;7.10;;
86110;SDS011;76766;52.874;11.218;2024-03-23T08:01:46;26.25;;;10.77;;
86110;SDS011;76766;52.874;11.218;2024-03-23T08:04:12;17.85;;;5.97;;
86110;SDS011;76766;52.874;11.218;2024-03-23T08:06:37;36.70;;;14.80;;
86110;SDS011;76766;52.874;11.218;2024-03-23T08:09:03;127.63;;;50.08;;
86110;SDS011;76766;52.874;11.218;2024-03-23T08:11:29;157.77;;;62.20;;
86110;SDS011;76766;52.874;11.218;2024-03-23T08:13:56;153.55;;;53.47;;
86110;SDS011;76766;52.874;11.218;2024-03-23T08:16:22;91.53;;;29.45;;
86110;SDS011;76766;52.874;11.218;2024-03-23T08:18:50;25.30;;;7.30;;
86110;SDS011;76766;52.874;11.218;2024-03-23T08:21:16;137.93;;;44.15;;
86110;SDS011;76766;52.874;11.218;2024-03-23T08:23:43;207.80;;;63.00;;
86110;SDS011;76766;52.874;11.218;2024-03-23T08:26:09;329.10;;;102.25;;
86110;SDS011;76766;52.874;11.218;2024-03-23T08:28:36;463.83;;;150.05;;
86110;SDS011;76766;52.874;11.218;2024-03-23T08:31:12;420.80;;;134.90;;
86110;SDS011;76766;52.874;11.218;2024-03-23T08:33:38;514.85;;;172.15;;
86110;SDS011;76766;52.874;11.218;2024-03-23T08:36:05;592.95;;;224.13;;
86110;SDS011;76766;52.874;11.218;2024-03-23T08:38:32;547.58;;;198.98;;
86110;SDS011;76766;52.874;11.218;2024-03-23T08:41:01;553.90;;;207.02;;
86110;SDS011;76766;52.874;11.218;2024-03-23T08:43:28;526.50;;;192.00;;
86110;SDS011;76766;52.874;11.218;2024-03-23T08:46:02;478.55;;;164.77;;
86110;SDS011;76766;52.874;11.218;2024-03-23T08:48:41;389.70;;;121.88;;
86110;SDS011;76766;52.874;11.218;2024-03-23T08:51:11;311.98;;;94.63;;
86110;SDS011;76766;52.874;11.218;2024-03-23T08:53:38;299.08;;;89.18;;
86110;SDS011;76766;52.874;11.218;2024-03-23T08:56:04;242.40;;;77.75;;
86110;SDS011;76766;52.874;11.218;2024-03-23T08:58:31;227.85;;;74.53;;
86110;SDS011;76766;52.874;11.218;2024-03-23T09:01:02;226.38;;;71.57;;
86110;SDS011;76766;52.874;11.218;2024-03-23T09:03:36;224.10;;;67.13;;
86110;SDS011;76766;52.874;11.218;2024-03-23T09:06:02;202.23;;;60.63;;
86110;SDS011;76766;52.874;11.218;2024-03-23T09:08:36;191.40;;;58.63;;
86110;SDS011;76766;52.874;11.218;2024-03-23T09:11:05;157.85;;;53.33;;
86110;SDS011;76766;52.874;11.218;2024-03-23T09:15:58;142.75;;;45.38;;
86110;SDS011;76766;52.874;11.218;2024-03-23T09:18:23;119.93;;;38.90;;
86110;SDS011;76766;52.874;11.218;2024-03-23T09:20:49;117.28;;;35.15;;
86110;SDS011;76766;52.874;11.218;2024-03-23T09:23:14;118.85;;;36.22;;
86110;SDS011;76766;52.874;11.218;2024-03-23T09:25:39;119.63;;;36.92;;
86110;SDS011;76766;52.874;11.218;2024-03-23T09:28:05;122.50;;;38.03;;
86110;SDS011;76766;52.874;11.218;2024-03-23T09:30:32;126.80;;;39.45;;
86110;SDS011;76766;52.874;11.218;2024-03-23T09:33:01;110.80;;;37.20;;
86110;SDS011;76766;52.874;11.218;2024-03-23T09:35:27;109.18;;;36.65;;
86110;SDS011;76766;52.874;11.218;2024-03-23T09:37:53;111.60;;;36.13;;
86110;SDS011;76766;52.874;11.218;2024-03-23T09:40:18;114.32;;;35.72;;
86110;SDS011;76766;52.874;11.218;2024-03-23T09:42:43;110.65;;;33.70;;
86110;SDS011;76766;52.874;11.218;2024-03-23T09:45:17;106.80;;;36.17;;
86110;SDS011;76766;52.874;11.218;2024-03-23T09:47:46;161.48;;;58.15;;
86110;SDS011;76766;52.874;11.218;2024-03-23T09:50:12;130.05;;;46.53;;
86110;SDS011;76766;52.874;11.218;2024-03-23T09:52:38;193.35;;;80.97;;
86110;SDS011;76766;52.874;11.218;2024-03-23T09:55:05;332.63;;;132.80;;
86110;SDS011;76766;52.874;11.218;2024-03-23T09:57:31;271.05;;;111.20;;
86110;SDS011;76766;52.874;11.218;2024-03-23T09:59:56;201.18;;;73.45;;
86110;SDS011;76766;52.874;11.218;2024-03-23T10:02:23;247.32;;;86.60;;
86110;SDS011;76766;52.874;11.218;2024-03-23T10:04:49;246.45;;;85.47;;
86110;SDS011;76766;52.874;11.218;2024-03-23T10:07:15;286.02;;;89.47;;
86110;SDS011;76766;52.874;11.218;2024-03-23T10:09:45;266.67;;;86.07;;
86110;SDS011;76766;52.874;11.218;2024-03-23T10:12:12;300.35;;;92.25;;
86110;SDS011;76766;52.874;11.218;2024-03-23T10:14:42;285.63;;;91.38;;
86110;SDS011;76766;52.874;11.218;2024-03-23T10:17:11;210.07;;;71.28;;
86110;SDS011;76766;52.874;11.218;2024-03-23T10:19:44;254.48;;;91.95;;
86110;SDS011;76766;52.874;11.218;2024-03-23T10:22:16;193.32;;;64.10;;
86110;SDS011;76766;52.874;11.218;2024-03-23T10:24:43;177.30;;;59.42;;
86110;SDS011;76766;52.874;11.218;2024-03-23T10:27:08;159.93;;;56.70;;
86110;SDS011;76766;52.874;11.218;2024-03-23T10:29:34;180.15;;;61.22;;
86110;SDS011;76766;52.874;11.218;2024-03-23T10:32:08;174.40;;;60.10;;
86110;SDS011;76766;52.874;11.218;2024-03-23T10:34:38;151.02;;;53.80;;
86110;SDS011;76766;52.874;11.218;2024-03-23T10:37:04;125.30;;;51.00;;
86110;SDS011;76766;52.874;11.218;2024-03-23T10:39:32;137.70;;;53.00;;
86110;SDS011;76766;52.874;11.218;2024-03-23T10:42:00;161.60;;;57.90;;
86110;SDS011;76766;52.874;11.218;2024-03-23T10:44:29;179.68;;;63.38;;
86110;SDS011;76766;52.874;11.218;2024-03-23T10:46:56;162.75;;;55.70;;
86110;SDS011;76766;52.874;11.218;2024-03-23T10:49:42;196.93;;;64.55;;
86110;SDS011;76766;52.874;11.218;2024-03-23T10:52:08;163.13;;;58.65;;
86110;SDS011;76766;52.874;11.218;2024-03-23T10:54:34;175.38;;;61.88;;
86110;SDS011;76766;52.874;11.218;2024-03-23T10:57:02;149.18;;;56.17;;
86110;SDS011;76766;52.874;11.218;2024-03-23T10:59:31;132.35;;;53.38;;
86110;SDS011;76766;52.874;11.218;2024-03-23T11:01:58;123.57;;;46.35;;
86110;SDS011;76766;52.874;11.218;2024-03-23T11:09:54;110.93;;;42.88;;
86110;SDS011;76766;52.874;11.218;2024-03-23T11:14:59;95.03;;;40.00;;
86110;SDS011;76766;52.874;11.218;2024-03-23T11:17:27;88.65;;;34.90;;
86110;SDS011;76766;52.874;11.218;2024-03-23T11:20:02;80.03;;;32.88;;
86110;SDS011;76766;52.874;11.218;2024-03-23T11:22:45;85.85;;;33.38;;
86110;SDS011;76766;52.874;11.218;2024-03-23T11:25:24;76.63;;;31.25;;
86110;SDS011;76766;52.874;11.218;2024-03-23T11:27:51;70.20;;;30.55;;
86110;SDS011;76766;52.874;11.218;2024-03-23T11:30:18;65.28;;;29.40;;
86110;SDS011;76766;52.874;11.218;2024-03-23T11:32:46;64.32;;;28.50;;
86110;SDS011;76766;52.874;11.218;2024-03-23T11:38:04;61.10;;;25.50;;
86110;SDS011;76766;52.874;11.218;2024-03-23T11:40:38;68.82;;;26.50;;
86110;SDS011;76766;52.874;11.218;2024-03-23T11:43:12;58.13;;;24.92;;
86110;SDS011;76766;52.874;11.218;2024-03-23T11:48:11;61.30;;;24.27;;
86110;SDS011;76766;52.874;11.218;2024-03-23T11:50:37;54.38;;;23.85;;
86110;SDS011;76766;52.874;11.218;2024-03-23T11:53:24;52.65;;;23.15;;
86110;SDS011;76766;52.874;11.218;2024-03-23T11:58:21;55.47;;;23.42;;
86110;SDS011;76766;52.874;11.218;2024-03-23T12:03:29;105.43;;;42.22;;
86110;SDS011;76766;52.874;11.218;2024-03-23T12:05:56;288.25;;;115.93;;
86110;SDS011;76766;52.874;11.218;2024-03-23T12:10:49;300.45;;;120.10;;
86110;SDS011;76766;52.874;11.218;2024-03-23T12:13:19;349.02;;;133.00;;
86110;SDS011;76766;52.874;11.218;2024-03-23T12:15:46;243.68;;;75.22;;
86110;SDS011;76766;52.874;11.218;2024-03-23T12:18:15;243.32;;;69.43;;
86110;SDS011;76766;52.874;11.218;2024-03-23T12:20:40;250.50;;;76.03;;
86110;SDS011;76766;52.874;11.218;2024-03-23T12:23:10;406.20;;;139.63;;
86110;SDS011;76766;52.874;11.218;2024-03-23T12:25:37;247.30;;;73.07;;
86110;SDS011;76766;52.874;11.218;2024-03-23T12:28:06;248.68;;;75.35;;
86110;SDS011;76766;52.874;11.218;2024-03-23T12:30:36;210.82;;;63.78;;
86110;SDS011;76766;52.874;11.218;2024-03-23T12:33:06;229.30;;;61.47;;
86110;SDS011;76766;52.874;11.218;2024-03-23T12:35:31;235.10;;;67.60;;
86110;SDS011;76766;52.874;11.218;2024-03-23T12:37:57;210.00;;;57.72;;
86110;SDS011;76766;52.874;11.218;2024-03-23T12:40:22;161.15;;;48.10;;
86110;SDS011;76766;52.874;11.218;2024-03-23T12:42:48;204.35;;;61.50;;
86110;SDS011;76766;52.874;11.218;2024-03-23T12:45:14;174.77;;;57.05;;
86110;SDS011;76766;52.874;11.218;2024-03-23T12:47:39;178.48;;;55.30;;
86110;SDS011;76766;52.874;11.218;2024-03-23T12:50:05;138.32;;;45.20;;
86110;SDS011;76766;52.874;11.218;2024-03-23T12:52:32;139.35;;;46.15;;
86110;SDS011;76766;52.874;11.218;2024-03-23T12:55:01;118.32;;;39.75;;
86110;SDS011;76766;52.874;11.218;2024-03-23T12:57:26;106.50;;;38.70;;
86110;SDS011;76766;52.874;11.218;2024-03-23T12:59:52;110.10;;;36.72;;
86110;SDS011;76766;52.874;11.218;2024-03-23T13:02:21;105.65;;;38.85;;
86110;SDS011;76766;52.874;11.218;2024-03-23T13:04:49;107.63;;;36.67;;
86110;SDS011;76766;52.874;11.218;2024-03-23T13:07:16;110.90;;;36.67;;
86110;SDS011;76766;52.874;11.218;2024-03-23T13:09:42;172.10;;;64.63;;
86110;SDS011;76766;52.874;11.218;2024-03-23T13:12:07;209.98;;;92.03;;
86110;SDS011;76766;52.874;11.218;2024-03-23T13:14:33;95.68;;;34.45;;
86110;SDS011;76766;52.874;11.218;2024-03-23T13:16:58;127.18;;;44.28;;
86110;SDS011;76766;52.874;11.218;2024-03-23T13:19:24;131.27;;;42.50;;
86110;SDS011;76766;52.874;11.218;2024-03-23T13:21:53;115.40;;;40.58;;
86110;SDS011;76766;52.874;11.218;2024-03-23T13:24:23;113.28;;;40.10;;
86110;SDS011;76766;52.874;11.218;2024-03-23T13:26:49;103.40;;;37.38;;
86110;SDS011;76766;52.874;11.218;2024-03-23T13:29:16;102.90;;;36.67;;
86110;SDS011;76766;52.874;11.218;2024-03-23T13:31:41;125.15;;;50.83;;
86110;SDS011;76766;52.874;11.218;2024-03-23T13:34:07;88.97;;;33.30;;
86110;SDS011;76766;52.874;11.218;2024-03-23T13:36:32;84.65;;;32.45;;
86110;SDS011;76766;52.874;11.218;2024-03-23T13:38:57;105.40;;;36.22;;
86110;SDS011;76766;52.874;11.218;2024-03-23T13:41:23;72.85;;;27.20;;
86110;SDS011;76766;52.874;11.218;2024-03-23T13:43:49;105.63;;;43.22;;
86110;SDS011;76766;52.874;11.218;2024-03-23T13:46:14;74.95;;;27.30;;
86110;SDS011;76766;52.874;11.218;2024-03-23T13:48:40;75.55;;;28.25;;
86110;SDS011;76766;52.874;11.218;2024-03-23T13:51:07;69.35;;;24.27;;
86110;SDS011;76766;52.874;11.218;2024-03-23T13:53:32;67.70;;;26.20;;
86110;SDS011;76766;52.874;11.218;2024-03-23T13:55:58;64.35;;;25.60;;
86110;SDS011;76766;52.874;11.218;2024-03-23T13:58:23;59.50;;;23.60;;
86110;SDS011;76766;52.874;11.218;2024-03-23T14:00:50;90.15;;;36.75;;
86110;SDS011;76766;52.874;11.218;2024-03-23T14:03:16;54.17;;;24.10;;
86110;SDS011;76766;52.874;11.218;2024-03-23T14:05:43;72.05;;;25.75;;
86110;SDS011;76766;52.874;11.218;2024-03-23T14:08:08;68.70;;;28.83;;
86110;SDS011;76766;52.874;11.218;2024-03-23T14:10:35;113.43;;;46.00;;
86110;SDS011;76766;52.874;11.218;2024-03-23T14:13:04;60.95;;;27.02;;
86110;SDS011;76766;52.874;11.218;2024-03-23T14:15:29;79.65;;;28.45;;
86110;SDS011;76766;52.874;11.218;2024-03-23T14:17:55;62.92;;;24.70;;
86110;SDS011;76766;52.874;11.218;2024-03-23T14:20:21;60.72;;;23.42;;
86110;SDS011;76766;52.874;11.218;2024-03-23T14:22:47;50.03;;;21.48;;
86110;SDS011;76766;52.874;11.218;2024-03-23T14:25:13;46.22;;;20.90;;
86110;SDS011;76766;52.874;11.218;2024-03-23T14:27:38;66.40;;;25.17;;
86110;SDS011;76766;52.874;11.218;2024-03-23T14:30:04;59.30;;;23.30;;
86110;SDS011;76766;52.874;11.218;2024-03-23T14:32:30;116.22;;;48.40;;
86110;SDS011;76766;52.874;11.218;2024-03-23T14:35:05;136.95;;;46.97;;
86110;SDS011;76766;52.874;11.218;2024-03-23T14:37:38;52.20;;;22.33;;
86110;SDS011;76766;52.874;11.218;2024-03-23T14:40:05;51.53;;;22.92;;
86110;SDS011;76766;52.874;11.218;2024-03-23T14:42:31;174.07;;;71.07;;
86110;SDS011;76766;52.874;11.218;2024-03-23T14:44:57;346.30;;;122.03;;
86110;SDS011;76766;52.874;11.218;2024-03-23T14:47:23;241.93;;;72.55;;
86110;SDS011;76766;52.874;11.218;2024-03-23T14:49:48;264.63;;;67.07;;
86110;SDS011;76766;52.874;11.218;2024-03-23T14:52:15;185.73;;;49.78;;
86110;SDS011;76766;52.874;11.218;2024-03-23T14:54:41;136.20;;;40.63;;
86110;SDS011;76766;52.874;11.218;2024-03-23T14:57:07;189.05;;;48.75;;
86110;SDS011;76766;52.874;11.218;2024-03-23T14:59:34;304.50;;;63.80;;
86110;SDS011;76766;52.874;11.218;2024-03-23T15:02:00;366.08;;;96.25;;
86110;SDS011;76766;52.874;11.218;2024-03-23T15:04:25;409.02;;;113.70;;
86110;SDS011;76766;52.874;11.218;2024-03-23T15:06:51;394.08;;;116.78;;
86110;SDS011;76766;52.874;11.218;2024-03-23T15:09:16;230.07;;;58.20;;
86110;SDS011;76766;52.874;11.218;2024-03-23T15:11:42;234.77;;;56.38;;
86110;SDS011;76766;52.874;11.218;2024-03-23T15:14:07;176.18;;;43.78;;
86110;SDS011;76766;52.874;11.218;2024-03-23T15:16:33;172.10;;;45.60;;
86110;SDS011;76766;52.874;11.218;2024-03-23T15:18:58;158.40;;;39.85;;
86110;SDS011;76766;52.874;11.218;2024-03-23T15:21:24;156.13;;;40.08;;
86110;SDS011;76766;52.874;11.218;2024-03-23T15:23:49;157.57;;;38.28;;
86110;SDS011;76766;52.874;11.218;2024-03-23T15:26:14;157.95;;;39.97;;
86110;SDS011;76766;52.874;11.218;2024-03-23T15:28:41;145.25;;;37.50;;
86110;SDS011;76766;52.874;11.218;2024-03-23T15:31:08;142.00;;;37.45;;